Terminal Aerodrome Forecast
Issued by NWS

Home | Current Version | Previous Version | Text Only | Print | Product List | Glossary On
Versions: 1 2 3 4 5 6 7 8 9 10 11 12 13 14 15 16 17 18 19 20 21 22 23 24 25
000
FTUS45 KBOU 230556 AAA
TAFBJC
TAF AMD
KBJC 230556Z 2306/2406 20011KT P6SM SCT200
     FM230900 23011KT P6SM SCT200
     FM231700 28015KT P6SM SCT080 BKN180
     FM232000 32015KT P6SM SCT080 BKN150
     FM232200 35012KT P6SM SCT070 OVC140
     FM240400 32007KT P6SM SCT140 BKN200=

USA.gov is the U.S. government's official web portal to all federal, state and local government web resources and services.